Aeroporto :
LOGIN :

Iscrizione | Disclaimer

   EN    FR    IT 

 










Sommario :    VFR   VFR Marginale   IFR   IFR Intensivo   IFR Molto Intensivo
Visibilità : 
Base nubi : 
>= 8 km
>= 3000ft
5 / 8 km
1000 / 3000 ft
1500m / 5 km
500 / 1000 ft
800 / 1500m
200 / 500 ft
< 800m
< 200 ft
Simboli :   Temporali  Nebbia  Neve Forte  Precipitazioni Forti  Vento > 20 kt
SIGMETs :   Varie  Temporali  Ghiacco  Turbolenza  Onda orograficha  Ceneri Vulcaniche






- Altitudine del aeroporto : 53 ft
- Codice IATA : HRT


EGXU - RAF Linton-on-Ouse

ULTIMO METAR :
  • 241350Z 24006KT 9999 FEW025 SCT045 10/06 Q1020 RMK BLU

METARs OBSOLETI :
  • 241320Z 25004KT 9999 FEW025 SCT200 10/06 Q1020 RMK BLU
  • 241250Z 28005KT 9999 FEW016 FEW025 SCT200 09/06 Q1020 RMK BLU
  • 241220Z 27005KT 9999 FEW025 SCT200 10/06 Q1021 RMK BLU
  • 241150Z 30005KT 9999 FEW025 SCT200 09/05 Q1021 RMK BLU
  • 241132Z 28004KT 9999 FEW020 SCT200 08/05 Q1021 RMK BLU
  • 241120Z 28004KT 9999 08/05 Q1021 RMK BLU

TAF TAF EGXU
Valido dal 24 a 12 ore il 24 a 18 ore UTC


241019Z 2412/2418 25007KT 9999 FEW020
PROB30
TEMPO 2412/2418 SCT016



MetMap, La meteo Aeronautica in un colpo d'occhio ! - Copyright ORBIFLY Dicembre 2007 - Disclaimer

ORBIFLY MET'MAP TEAM :

Programmazione e sviluppo : Alexandra Zaïnal
Concezione : Baudouin d'Aumeries
Aiuto per la programmazione : Marc-Olivier Méhu
Supporto tecnico e logistico : Manuel Goepfert
Aiuto per la traduzione : Arnaldo La Scala

Contatto : metmap@orbifly.com




FONTI E CREDITI :

   NOAA